Terminal Aerodrome Forecast
Issued by NWS

Home | Current Version | Previous Version | Text Only | Print | Product List | Glossary On
Versions: 1 2 3 4 5 6 7 8 9 10 11 12 13
000
FTUS41 KBTV 250520
TAFPBG
TAF
KPBG 250520Z 2506/2606 VRB05KT P6SM BKN250
     FM251100 15010G17KT 2SM -SNPL BR OVC090
     FM251500 15019G29KT 4SM -SNPL BR OVC015
     FM251800 16020G31KT 3SM -RASNPL BR OVC025
     FM252100 17020G29KT P6SM VCSH BKN110
     FM252300 17017KT P6SM BKN110
     FM260500 19007KT P6SM SCT250=

USA.gov is the U.S. government's official web portal to all federal, state and local government web resources and services.